createdAt,value
2023-04-28T00:01:08.095Z,1.52
2023-04-28T00:06:11.541Z,1.47
2023-04-28T00:11:14.310Z,1.41
2023-04-28T00:16:17.175Z,1.32
2023-04-28T00:21:20.020Z,1.24
2023-04-28T00:26:22.954Z,1.17
2023-04-28T00:31:25.888Z,1.11
2023-04-28T00:36:32.383Z,1.10
2023-04-28T00:41:35.356Z,1.15
2023-04-28T00:46:38.210Z,1.18
2023-04-28T00:51:41.050Z,1.20
2023-04-28T00:56:44.830Z,1.18
2023-04-28T01:01:47.628Z,1.16
2023-04-28T01:06:52.708Z,1.13
2023-04-28T01:11:55.926Z,1.07
2023-04-28T01:16:59.143Z,1.02
2023-04-28T01:22:02.210Z,0.97
2023-04-28T01:27:05.124Z,0.97
2023-04-28T01:32:10.299Z,0.95
2023-04-28T01:37:13.244Z,0.93
2023-04-28T01:42:16.003Z,0.90
2023-04-28T01:47:18.772Z,0.86
2023-04-28T01:52:23.206Z,0.80
2023-04-28T01:57:26.530Z,0.76
2023-04-28T02:02:29.643Z,0.73
2023-04-28T02:07:32.681Z,0.73
2023-04-28T02:12:35.449Z,0.77
2023-04-28T02:17:38.295Z,0.81
2023-04-28T02:22:41.582Z,0.83
2023-04-28T02:27:45.265Z,0.83
2023-04-28T02:32:48.601Z,0.84
2023-04-28T02:37:52.524Z,0.85
2023-04-28T02:42:55.305Z,0.86
2023-04-28T02:47:58.602Z,0.88
2023-04-28T02:53:01.437Z,0.91
2023-04-28T02:58:04.532Z,0.96
2023-04-28T03:03:07.744Z,1.02
2023-04-28T03:08:11.017Z,1.06
2023-04-28T03:13:14.141Z,1.09
2023-04-28T03:18:18.028Z,1.09
2023-04-28T03:23:20.782Z,1.08
2023-04-28T03:28:23.548Z,1.10
2023-04-28T03:33:26.340Z,1.15
2023-04-28T03:38:29.196Z,1.20
2023-04-28T03:43:34.131Z,1.26
2023-04-28T03:48:36.959Z,1.32
2023-04-28T03:53:39.733Z,1.39
2023-04-28T03:58:44.877Z,1.45
2023-04-28T04:03:47.981Z,1.55
2023-04-28T04:08:51.188Z,1.69
2023-04-28T04:13:53.974Z,1.85
2023-04-28T04:19:01.773Z,1.99
2023-04-28T04:24:04.886Z,2.13
2023-04-28T04:29:07.700Z,2.25
2023-04-28T04:34:13.802Z,2.39
2023-04-28T04:39:16.976Z,2.58
2023-04-28T04:44:20.119Z,2.85
2023-04-28T04:49:22.970Z,3.12
2023-04-28T04:54:25.732Z,3.54
2023-04-28T04:59:28.532Z,4.03
2023-04-28T05:04:31.412Z,4.55
2023-04-28T05:09:34.345Z,5.08
2023-04-28T05:14:39.256Z,5.55
2023-04-28T05:19:41.989Z,5.99
2023-04-28T05:24:44.810Z,6.41
2023-04-28T05:29:47.710Z,6.78
2023-04-28T05:34:50.606Z,7.03
2023-04-28T05:39:53.623Z,7.25
2023-04-28T05:44:56.405Z,7.42
2023-04-28T05:50:02.644Z,7.56
2023-04-28T05:55:08.350Z,7.72
2023-04-28T06:00:16.090Z,7.90
2023-04-28T06:05:19.285Z,8.12
2023-04-28T06:10:23.791Z,8.44
2023-04-28T06:15:26.706Z,8.80
2023-04-28T06:20:29.770Z,10.47
2023-04-28T06:25:32.694Z,15.19
2023-04-28T06:30:35.617Z,19.09
2023-04-28T06:35:39.667Z,21.96
2023-04-28T06:40:42.518Z,24.03
2023-04-28T06:45:45.379Z,25.29
2023-04-28T06:50:48.228Z,26.43
2023-04-28T06:55:51.654Z,27.07
2023-04-28T07:00:54.517Z,27.46
2023-04-28T07:05:58.140Z,27.71
2023-04-28T07:11:04.886Z,25.00
2023-04-28T07:16:08.338Z,21.46
2023-04-28T07:21:14.657Z,19.15
2023-04-28T07:26:17.565Z,18.82
2023-04-28T07:31:24.025Z,21.22
2023-04-28T07:36:27.011Z,22.92
2023-04-28T07:41:30.019Z,23.95
2023-04-28T07:46:33.452Z,24.63
2023-04-28T07:51:36.527Z,25.08
2023-04-28T07:56:39.362Z,25.15
2023-04-28T08:01:43.163Z,24.77
2023-04-28T08:06:46.583Z,24.54
2023-04-28T08:11:49.452Z,24.18
2023-04-28T08:16:52.261Z,23.72
2023-04-28T08:21:55.051Z,23.48
2023-04-28T08:26:57.882Z,23.41
2023-04-28T08:32:04.872Z,22.15
2023-04-28T08:37:07.971Z,20.73
2023-04-28T08:42:15.208Z,20.74
2023-04-28T08:47:21.304Z,20.69
2023-04-28T08:52:27.260Z,20.39
2023-04-28T08:57:48.345Z,19.84
2023-04-28T09:02:51.280Z,19.78
2023-04-28T09:07:55.785Z,19.79
2023-04-28T09:12:58.909Z,19.66
2023-04-28T09:18:06.670Z,19.22
2023-04-28T09:23:17.566Z,18.53
2023-04-28T09:28:23.086Z,17.90
2023-04-28T09:33:26.137Z,17.29
2023-04-28T09:38:30.476Z,16.77
2023-04-28T09:43:35.907Z,16.32
2023-04-28T09:48:38.925Z,15.91
2023-04-28T09:53:43.115Z,15.70
2023-04-28T09:58:52.920Z,15.67
2023-04-28T10:03:58.207Z,15.79
2023-04-28T10:09:02.091Z,15.92
2023-04-28T10:14:06.034Z,15.87
2023-04-28T10:19:10.568Z,15.77
2023-04-28T10:24:22.637Z,15.52
2023-04-28T10:29:25.923Z,15.28
2023-04-28T10:34:30.212Z,15.18
2023-04-28T10:39:35.347Z,15.20
2023-04-28T10:44:44.550Z,15.23
2023-04-28T10:49:57.765Z,15.20
2023-04-28T10:55:40.334Z,15.11
2023-04-28T11:00:45.389Z,15.17
2023-04-28T11:06:29.337Z,15.11
2023-04-28T11:11:38.928Z,15.04
2023-04-28T11:16:57.559Z,14.87
2023-04-28T11:22:04.465Z,14.77
2023-04-28T11:27:07.408Z,14.75
2023-04-28T11:32:11.035Z,14.64
2023-04-28T11:37:18.312Z,14.63
2023-04-28T11:42:27.262Z,14.74
2023-04-28T11:47:32.737Z,14.69
2023-04-28T11:52:36.112Z,14.54
2023-04-28T11:57:39.981Z,14.49
2023-04-28T12:02:43.161Z,14.41
2023-04-28T12:07:47.065Z,14.18
2023-04-28T12:12:53.207Z,14.08
2023-04-28T12:17:57.047Z,14.09
2023-04-28T12:23:03.110Z,14.11
2023-04-28T12:28:10.926Z,14.19
2023-04-28T12:33:25.628Z,14.01
2023-04-28T12:38:30.905Z,14.18
2023-04-28T12:43:34.747Z,14.32
2023-04-28T12:48:38.554Z,14.30
2023-04-28T12:53:41.303Z,14.17
2023-04-28T12:58:44.220Z,13.95
2023-04-28T13:03:48.659Z,13.73
2023-04-28T13:08:51.986Z,13.43
2023-04-28T13:13:56.732Z,13.10
2023-04-28T13:19:02.906Z,13.03
2023-04-28T13:24:06.036Z,13.21
2023-04-28T13:29:09.565Z,13.35
2023-04-28T13:34:19.053Z,13.50
2023-04-28T13:39:22.218Z,13.59
2023-04-28T13:44:24.989Z,13.59
2023-04-28T13:49:28.236Z,13.52
2023-04-28T13:54:31.438Z,13.46
2023-04-28T13:59:34.372Z,13.36
2023-04-28T14:04:37.737Z,13.31
2023-04-28T14:09:41.582Z,13.28
2023-04-28T14:14:49.166Z,13.22
2023-04-28T14:19:56.409Z,13.17
2023-04-28T14:24:59.306Z,13.11
2023-04-28T14:30:02.358Z,13.04
2023-04-28T14:35:06.390Z,12.89
2023-04-28T14:40:10.403Z,12.83
2023-04-28T14:45:14.016Z,12.77
2023-04-28T14:50:16.918Z,12.75
2023-04-28T14:55:21.032Z,12.69
2023-04-28T15:00:23.954Z,12.62
2023-04-28T15:05:27.299Z,12.56
2023-04-28T15:10:39.530Z,12.52
2023-04-28T15:15:42.742Z,12.43
2023-04-28T15:20:45.843Z,12.39
2023-04-28T15:25:53.257Z,12.39
2023-04-28T15:30:56.380Z,12.35
2023-04-28T15:35:59.201Z,12.33
2023-04-28T15:41:02.730Z,12.32
2023-04-28T15:46:09.433Z,12.35
2023-04-28T15:51:14.896Z,12.35
2023-04-28T15:56:19.700Z,12.33
2023-04-28T16:01:24.625Z,12.29
2023-04-28T16:06:27.801Z,12.23
2023-04-28T16:11:30.889Z,12.15
2023-04-28T16:16:34.495Z,12.11
2023-04-28T16:21:37.329Z,12.06
2023-04-28T16:26:40.588Z,11.99
2023-04-28T16:31:45.072Z,11.88
2023-04-28T16:36:48.170Z,11.79
2023-04-28T16:41:51.198Z,11.72
2023-04-28T16:46:54.278Z,11.64
2023-04-28T16:52:03.881Z,11.55
2023-04-28T16:57:08.113Z,11.48
2023-04-28T17:02:12.296Z,11.40
2023-04-28T17:07:17.586Z,11.31
2023-04-28T17:12:23.430Z,11.23
2023-04-28T17:17:26.528Z,11.14
2023-04-28T17:22:31.920Z,11.02
2023-04-28T17:27:35.476Z,10.87
2023-04-28T17:32:38.742Z,10.73
2023-04-28T17:37:42.103Z,10.59
2023-04-28T17:42:44.827Z,10.47
2023-04-28T17:47:53.179Z,10.34
2023-04-28T17:52:56.123Z,10.23
2023-04-28T17:58:01.621Z,10.13
2023-04-28T18:03:04.576Z,10.03
2023-04-28T18:08:09.445Z,9.93
2023-04-28T18:13:12.248Z,9.84
2023-04-28T18:18:17.349Z,9.74
2023-04-28T18:23:20.373Z,9.62
2023-04-28T18:28:24.830Z,9.50
2023-04-28T18:33:29.860Z,9.39
2023-04-28T18:38:35.297Z,9.27
2023-04-28T18:43:38.110Z,9.13
2023-04-28T18:48:43.128Z,9.00
2023-04-28T18:53:47.479Z,8.86
2023-04-28T18:58:50.775Z,8.73
2023-04-28T19:03:53.696Z,8.62
2023-04-28T19:08:57.462Z,8.50
2023-04-28T19:14:00.219Z,8.40
2023-04-28T19:19:03.235Z,8.28
2023-04-28T19:24:06.792Z,8.17
2023-04-28T19:29:09.538Z,8.05
2023-04-28T19:34:12.589Z,7.94
2023-04-28T19:39:15.356Z,7.81
2023-04-28T19:44:18.232Z,7.69
2023-04-28T19:49:22.871Z,7.55
2023-04-28T19:54:26.399Z,7.43
2023-04-28T19:59:29.220Z,7.30
2023-04-28T20:04:32.446Z,7.18
2023-04-28T20:09:38.981Z,7.05
2023-04-28T20:14:41.741Z,6.92
2023-04-28T20:19:44.578Z,6.82
2023-04-28T20:24:47.572Z,6.71
2023-04-28T20:29:50.973Z,6.61
2023-04-28T20:34:54.386Z,6.52
2023-04-28T20:39:57.838Z,6.44
2023-04-28T20:45:00.792Z,6.39
2023-04-28T20:50:06.630Z,6.32
2023-04-28T20:55:10.606Z,6.23
2023-04-28T21:00:13.561Z,6.13
2023-04-28T21:05:17.752Z,6.03
2023-04-28T21:10:20.663Z,5.94
2023-04-28T21:15:23.558Z,5.86
2023-04-28T21:20:26.690Z,5.79
2023-04-28T21:25:29.585Z,5.72
2023-04-28T21:30:32.344Z,5.65
2023-04-28T21:35:35.183Z,5.58
2023-04-28T21:40:37.897Z,5.50
2023-04-28T21:45:40.683Z,5.43
2023-04-28T21:50:43.627Z,5.37
2023-04-28T21:55:47.525Z,5.33
2023-04-28T22:00:51.369Z,5.31
2023-04-28T22:05:55.351Z,5.30
2023-04-28T22:10:58.282Z,5.28
2023-04-28T22:16:01.986Z,5.26
2023-04-28T22:21:07.286Z,5.26
2023-04-28T22:26:10.140Z,5.28
2023-04-28T22:31:13.569Z,5.25
2023-04-28T22:36:16.699Z,5.22
2023-04-28T22:41:19.441Z,5.18
2023-04-28T22:46:22.269Z,5.14
2023-04-28T22:51:25.120Z,5.10
2023-04-28T22:56:28.186Z,5.05
2023-04-28T23:01:31.990Z,5.01
2023-04-28T23:06:35.186Z,4.99
2023-04-28T23:11:37.961Z,4.99
2023-04-28T23:16:41.185Z,4.98
2023-04-28T23:21:44.627Z,4.97
2023-04-28T23:26:47.364Z,4.96
2023-04-28T23:31:55.057Z,4.95
2023-04-28T23:36:58.605Z,4.93
2023-04-28T23:42:02.551Z,4.88
2023-04-28T23:47:05.292Z,4.80
2023-04-28T23:52:08.114Z,4.73
2023-04-28T23:57:11.175Z,4.66
